sensor_id;sensor_type;location;lat;lon;timestamp;P1;durP1;ratioP1;P2;durP2;ratioP2
60851;SDS011;48553;50.766;2.900;2023-12-20T00:00:53;6.25;;;2.00;;
60851;SDS011;48553;50.766;2.900;2023-12-20T00:03:53;5.25;;;1.77;;
60851;SDS011;48553;50.766;2.900;2023-12-20T00:06:53;6.55;;;1.75;;
60851;SDS011;48553;50.766;2.900;2023-12-20T00:09:54;6.57;;;1.73;;
60851;SDS011;48553;50.766;2.900;2023-12-20T00:12:54;7.10;;;1.75;;
60851;SDS011;48553;50.766;2.900;2023-12-20T00:15:55;4.75;;;1.48;;
60851;SDS011;48553;50.766;2.900;2023-12-20T00:18:55;7.47;;;1.70;;
60851;SDS011;48553;50.766;2.900;2023-12-20T00:21:56;6.43;;;1.30;;
60851;SDS011;48553;50.766;2.900;2023-12-20T00:24:56;6.10;;;1.67;;
60851;SDS011;48553;50.766;2.900;2023-12-20T00:27:57;7.05;;;1.42;;
60851;SDS011;48553;50.766;2.900;2023-12-20T00:30:57;7.25;;;1.67;;
60851;SDS011;48553;50.766;2.900;2023-12-20T00:33:58;8.52;;;1.30;;
60851;SDS011;48553;50.766;2.900;2023-12-20T00:36:58;7.40;;;1.20;;
60851;SDS011;48553;50.766;2.900;2023-12-20T00:39:58;7.18;;;1.38;;
60851;SDS011;48553;50.766;2.900;2023-12-20T00:43:00;5.80;;;1.20;;
60851;SDS011;48553;50.766;2.900;2023-12-20T00:46:00;9.50;;;1.45;;
60851;SDS011;48553;50.766;2.900;2023-12-20T00:49:01;5.68;;;1.55;;
60851;SDS011;48553;50.766;2.900;2023-12-20T00:52:01;9.60;;;2.05;;
60851;SDS011;48553;50.766;2.900;2023-12-20T00:55:02;7.13;;;1.67;;
60851;SDS011;48553;50.766;2.900;2023-12-20T00:58:03;10.27;;;1.80;;
60851;SDS011;48553;50.766;2.900;2023-12-20T01:01:04;7.90;;;2.10;;
60851;SDS011;48553;50.766;2.900;2023-12-20T01:04:04;8.43;;;1.90;;
60851;SDS011;48553;50.766;2.900;2023-12-20T01:07:05;6.25;;;1.65;;
60851;SDS011;48553;50.766;2.900;2023-12-20T01:10:05;9.45;;;2.25;;
60851;SDS011;48553;50.766;2.900;2023-12-20T01:13:06;8.57;;;2.20;;
60851;SDS011;48553;50.766;2.900;2023-12-20T01:16:08;8.38;;;2.10;;
60851;SDS011;48553;50.766;2.900;2023-12-20T01:19:10;7.80;;;2.08;;
60851;SDS011;48553;50.766;2.900;2023-12-20T01:22:11;9.50;;;2.10;;
60851;SDS011;48553;50.766;2.900;2023-12-20T01:25:11;6.75;;;2.00;;
60851;SDS011;48553;50.766;2.900;2023-12-20T01:28:12;6.88;;;2.10;;
60851;SDS011;48553;50.766;2.900;2023-12-20T01:31:13;5.80;;;1.88;;
60851;SDS011;48553;50.766;2.900;2023-12-20T01:34:13;6.47;;;1.90;;
60851;SDS011;48553;50.766;2.900;2023-12-20T01:37:13;6.10;;;1.90;;
60851;SDS011;48553;50.766;2.900;2023-12-20T01:40:14;6.40;;;1.60;;
60851;SDS011;48553;50.766;2.900;2023-12-20T01:43:15;5.18;;;1.50;;
60851;SDS011;48553;50.766;2.900;2023-12-20T01:46:15;7.15;;;1.50;;
60851;SDS011;48553;50.766;2.900;2023-12-20T01:49:16;3.60;;;1.23;;
60851;SDS011;48553;50.766;2.900;2023-12-20T01:52:17;6.72;;;1.70;;
60851;SDS011;48553;50.766;2.900;2023-12-20T01:55:19;7.57;;;1.50;;
60851;SDS011;48553;50.766;2.900;2023-12-20T01:58:20;8.45;;;1.60;;
60851;SDS011;48553;50.766;2.900;2023-12-20T02:01:22;9.32;;;1.60;;
60851;SDS011;48553;50.766;2.900;2023-12-20T02:04:23;5.45;;;1.58;;
60851;SDS011;48553;50.766;2.900;2023-12-20T02:07:24;7.85;;;1.30;;
60851;SDS011;48553;50.766;2.900;2023-12-20T02:10:25;7.63;;;1.60;;
60851;SDS011;48553;50.766;2.900;2023-12-20T02:13:26;7.80;;;1.40;;
60851;SDS011;48553;50.766;2.900;2023-12-20T02:16:27;9.38;;;1.45;;
60851;SDS011;48553;50.766;2.900;2023-12-20T02:19:27;5.88;;;1.42;;
60851;SDS011;48553;50.766;2.900;2023-12-20T02:22:28;5.97;;;1.50;;
60851;SDS011;48553;50.766;2.900;2023-12-20T02:25:28;7.80;;;1.60;;
60851;SDS011;48553;50.766;2.900;2023-12-20T02:28:28;12.10;;;1.52;;
60851;SDS011;48553;50.766;2.900;2023-12-20T02:31:29;6.82;;;1.65;;
60851;SDS011;48553;50.766;2.900;2023-12-20T02:34:30;5.55;;;1.60;;
60851;SDS011;48553;50.766;2.900;2023-12-20T02:37:30;5.22;;;1.30;;
60851;SDS011;48553;50.766;2.900;2023-12-20T02:40:31;5.45;;;1.58;;
60851;SDS011;48553;50.766;2.900;2023-12-20T02:43:32;7.05;;;1.33;;
60851;SDS011;48553;50.766;2.900;2023-12-20T02:46:33;5.88;;;1.45;;
60851;SDS011;48553;50.766;2.900;2023-12-20T02:49:33;7.82;;;1.42;;
60851;SDS011;48553;50.766;2.900;2023-12-20T02:52:34;9.90;;;1.70;;
60851;SDS011;48553;50.766;2.900;2023-12-20T02:55:34;6.43;;;1.30;;
60851;SDS011;48553;50.766;2.900;2023-12-20T02:58:35;7.15;;;1.60;;
60851;SDS011;48553;50.766;2.900;2023-12-20T03:01:41;5.07;;;1.52;;
60851;SDS011;48553;50.766;2.900;2023-12-20T03:04:42;6.05;;;1.30;;
60851;SDS011;48553;50.766;2.900;2023-12-20T03:07:42;7.13;;;1.27;;
60851;SDS011;48553;50.766;2.900;2023-12-20T03:10:43;9.95;;;1.30;;
60851;SDS011;48553;50.766;2.900;2023-12-20T03:13:43;7.55;;;1.20;;
60851;SDS011;48553;50.766;2.900;2023-12-20T03:16:48;6.45;;;1.40;;
60851;SDS011;48553;50.766;2.900;2023-12-20T03:19:49;6.43;;;1.50;;
60851;SDS011;48553;50.766;2.900;2023-12-20T03:22:50;6.57;;;1.08;;
60851;SDS011;48553;50.766;2.900;2023-12-20T03:25:50;8.65;;;1.30;;
60851;SDS011;48553;50.766;2.900;2023-12-20T03:28:51;5.82;;;1.40;;
60851;SDS011;48553;50.766;2.900;2023-12-20T03:31:52;7.38;;;1.30;;
60851;SDS011;48553;50.766;2.900;2023-12-20T03:34:52;5.60;;;1.27;;
60851;SDS011;48553;50.766;2.900;2023-12-20T03:37:52;6.53;;;1.33;;
60851;SDS011;48553;50.766;2.900;2023-12-20T03:40:53;7.60;;;1.52;;
60851;SDS011;48553;50.766;2.900;2023-12-20T03:43:54;6.45;;;1.25;;
60851;SDS011;48553;50.766;2.900;2023-12-20T03:46:54;9.40;;;1.30;;
60851;SDS011;48553;50.766;2.900;2023-12-20T03:49:54;6.78;;;1.45;;
60851;SDS011;48553;50.766;2.900;2023-12-20T03:52:55;7.72;;;1.27;;
60851;SDS011;48553;50.766;2.900;2023-12-20T03:55:55;7.50;;;1.35;;
60851;SDS011;48553;50.766;2.900;2023-12-20T03:58:56;6.97;;;1.25;;
60851;SDS011;48553;50.766;2.900;2023-12-20T04:01:56;9.55;;;1.25;;
60851;SDS011;48553;50.766;2.900;2023-12-20T04:04:57;4.30;;;1.17;;
60851;SDS011;48553;50.766;2.900;2023-12-20T04:07:57;5.65;;;1.20;;
60851;SDS011;48553;50.766;2.900;2023-12-20T04:10:59;7.22;;;1.33;;
60851;SDS011;48553;50.766;2.900;2023-12-20T04:14:00;7.57;;;1.30;;
60851;SDS011;48553;50.766;2.900;2023-12-20T04:17:00;7.88;;;1.20;;
60851;SDS011;48553;50.766;2.900;2023-12-20T04:20:01;7.15;;;1.33;;
60851;SDS011;48553;50.766;2.900;2023-12-20T04:23:02;8.07;;;1.33;;
60851;SDS011;48553;50.766;2.900;2023-12-20T04:26:02;6.60;;;1.17;;
60851;SDS011;48553;50.766;2.900;2023-12-20T04:29:03;9.32;;;1.48;;
60851;SDS011;48553;50.766;2.900;2023-12-20T04:32:04;8.52;;;1.40;;
60851;SDS011;48553;50.766;2.900;2023-12-20T04:35:05;10.45;;;1.50;;
60851;SDS011;48553;50.766;2.900;2023-12-20T04:38:05;7.97;;;1.45;;
60851;SDS011;48553;50.766;2.900;2023-12-20T04:41:06;8.40;;;1.48;;
60851;SDS011;48553;50.766;2.900;2023-12-20T04:44:07;6.65;;;1.33;;
60851;SDS011;48553;50.766;2.900;2023-12-20T04:47:07;10.73;;;1.58;;
60851;SDS011;48553;50.766;2.900;2023-12-20T04:50:08;7.03;;;0.90;;
60851;SDS011;48553;50.766;2.900;2023-12-20T04:53:09;4.72;;;1.20;;
60851;SDS011;48553;50.766;2.900;2023-12-20T04:56:10;7.80;;;1.35;;
60851;SDS011;48553;50.766;2.900;2023-12-20T04:59:10;7.10;;;1.33;;
60851;SDS011;48553;50.766;2.900;2023-12-20T05:02:11;11.70;;;1.83;;
60851;SDS011;48553;50.766;2.900;2023-12-20T05:05:11;5.88;;;1.38;;
60851;SDS011;48553;50.766;2.900;2023-12-20T05:08:12;8.63;;;1.25;;
60851;SDS011;48553;50.766;2.900;2023-12-20T05:11:12;7.35;;;1.35;;
60851;SDS011;48553;50.766;2.900;2023-12-20T05:14:15;7.82;;;1.45;;
60851;SDS011;48553;50.766;2.900;2023-12-20T05:17:15;6.47;;;1.10;;
60851;SDS011;48553;50.766;2.900;2023-12-20T05:20:16;7.70;;;1.00;;
60851;SDS011;48553;50.766;2.900;2023-12-20T05:23:17;7.20;;;1.17;;
60851;SDS011;48553;50.766;2.900;2023-12-20T05:26:17;7.05;;;1.30;;
60851;SDS011;48553;50.766;2.900;2023-12-20T05:29:18;8.02;;;1.40;;
60851;SDS011;48553;50.766;2.900;2023-12-20T05:32:18;5.03;;;1.05;;
60851;SDS011;48553;50.766;2.900;2023-12-20T05:35:19;9.23;;;1.30;;
60851;SDS011;48553;50.766;2.900;2023-12-20T05:38:19;7.53;;;1.10;;
60851;SDS011;48553;50.766;2.900;2023-12-20T05:41:19;6.32;;;1.48;;
60851;SDS011;48553;50.766;2.900;2023-12-20T05:44:21;6.80;;;1.35;;
60851;SDS011;48553;50.766;2.900;2023-12-20T05:47:22;6.88;;;1.30;;
60851;SDS011;48553;50.766;2.900;2023-12-20T05:50:22;7.28;;;1.27;;
60851;SDS011;48553;50.766;2.900;2023-12-20T05:53:23;8.82;;;1.30;;
60851;SDS011;48553;50.766;2.900;2023-12-20T05:56:23;7.93;;;1.10;;
60851;SDS011;48553;50.766;2.900;2023-12-20T05:59:23;10.05;;;1.30;;
60851;SDS011;48553;50.766;2.900;2023-12-20T06:02:24;7.43;;;1.20;;
60851;SDS011;48553;50.766;2.900;2023-12-20T06:05:24;7.10;;;1.67;;
60851;SDS011;48553;50.766;2.900;2023-12-20T06:08:25;5.30;;;1.30;;
60851;SDS011;48553;50.766;2.900;2023-12-20T06:11:25;10.80;;;1.65;;
60851;SDS011;48553;50.766;2.900;2023-12-20T06:14:26;7.93;;;1.33;;
60851;SDS011;48553;50.766;2.900;2023-12-20T06:17:26;7.03;;;1.50;;
60851;SDS011;48553;50.766;2.900;2023-12-20T06:20:30;4.78;;;1.38;;
60851;SDS011;48553;50.766;2.900;2023-12-20T06:23:30;7.97;;;1.55;;
60851;SDS011;48553;50.766;2.900;2023-12-20T06:26:31;5.50;;;1.10;;
60851;SDS011;48553;50.766;2.900;2023-12-20T06:29:31;7.35;;;1.20;;
60851;SDS011;48553;50.766;2.900;2023-12-20T06:32:32;8.40;;;1.40;;
60851;SDS011;48553;50.766;2.900;2023-12-20T06:35:34;10.45;;;1.77;;
60851;SDS011;48553;50.766;2.900;2023-12-20T06:38:34;8.55;;;1.10;;
60851;SDS011;48553;50.766;2.900;2023-12-20T06:41:35;7.22;;;1.50;;
60851;SDS011;48553;50.766;2.900;2023-12-20T06:44:35;9.20;;;1.52;;
60851;SDS011;48553;50.766;2.900;2023-12-20T06:47:36;9.93;;;1.40;;
60851;SDS011;48553;50.766;2.900;2023-12-20T06:50:37;8.20;;;1.30;;
60851;SDS011;48553;50.766;2.900;2023-12-20T06:53:40;7.63;;;1.33;;
60851;SDS011;48553;50.766;2.900;2023-12-20T06:56:40;4.32;;;1.25;;
60851;SDS011;48553;50.766;2.900;2023-12-20T06:59:41;6.45;;;1.45;;
60851;SDS011;48553;50.766;2.900;2023-12-20T07:02:41;7.93;;;1.52;;
60851;SDS011;48553;50.766;2.900;2023-12-20T07:05:43;5.80;;;1.50;;
60851;SDS011;48553;50.766;2.900;2023-12-20T07:08:44;7.97;;;1.45;;
60851;SDS011;48553;50.766;2.900;2023-12-20T07:11:44;7.70;;;2.10;;
60851;SDS011;48553;50.766;2.900;2023-12-20T07:14:45;7.35;;;2.55;;
60851;SDS011;48553;50.766;2.900;2023-12-20T07:17:46;11.13;;;3.22;;
60851;SDS011;48553;50.766;2.900;2023-12-20T07:20:46;10.85;;;3.00;;
60851;SDS011;48553;50.766;2.900;2023-12-20T07:23:47;12.93;;;3.53;;
60851;SDS011;48553;50.766;2.900;2023-12-20T07:26:48;5.50;;;2.47;;
60851;SDS011;48553;50.766;2.900;2023-12-20T07:29:49;13.90;;;2.75;;
60851;SDS011;48553;50.766;2.900;2023-12-20T07:32:50;8.65;;;2.53;;
60851;SDS011;48553;50.766;2.900;2023-12-20T07:35:50;10.35;;;2.42;;
60851;SDS011;48553;50.766;2.900;2023-12-20T07:38:51;7.95;;;2.10;;
60851;SDS011;48553;50.766;2.900;2023-12-20T07:41:52;8.82;;;2.40;;
60851;SDS011;48553;50.766;2.900;2023-12-20T07:44:52;9.10;;;2.00;;
60851;SDS011;48553;50.766;2.900;2023-12-20T07:47:53;8.32;;;1.70;;
60851;SDS011;48553;50.766;2.900;2023-12-20T07:50:53;8.88;;;1.77;;
60851;SDS011;48553;50.766;2.900;2023-12-20T07:53:54;12.93;;;2.10;;
60851;SDS011;48553;50.766;2.900;2023-12-20T07:56:55;7.07;;;1.50;;
60851;SDS011;48553;50.766;2.900;2023-12-20T07:59:55;10.13;;;1.73;;
60851;SDS011;48553;50.766;2.900;2023-12-20T08:02:56;7.72;;;1.83;;
60851;SDS011;48553;50.766;2.900;2023-12-20T08:05:56;10.00;;;2.20;;
60851;SDS011;48553;50.766;2.900;2023-12-20T08:08:59;11.85;;;1.80;;
60851;SDS011;48553;50.766;2.900;2023-12-20T08:11:59;8.90;;;1.80;;
60851;SDS011;48553;50.766;2.900;2023-12-20T08:15:01;8.77;;;1.48;;
60851;SDS011;48553;50.766;2.900;2023-12-20T08:18:02;6.95;;;1.60;;
60851;SDS011;48553;50.766;2.900;2023-12-20T08:21:02;9.52;;;1.75;;
60851;SDS011;48553;50.766;2.900;2023-12-20T08:24:03;5.47;;;1.63;;
60851;SDS011;48553;50.766;2.900;2023-12-20T08:27:04;11.68;;;2.25;;
60851;SDS011;48553;50.766;2.900;2023-12-20T08:30:05;8.77;;;1.60;;
60851;SDS011;48553;50.766;2.900;2023-12-20T08:33:06;7.32;;;1.83;;
60851;SDS011;48553;50.766;2.900;2023-12-20T08:36:11;10.82;;;2.15;;
60851;SDS011;48553;50.766;2.900;2023-12-20T08:39:12;8.38;;;2.13;;
60851;SDS011;48553;50.766;2.900;2023-12-20T08:42:12;11.13;;;1.90;;
60851;SDS011;48553;50.766;2.900;2023-12-20T08:45:13;8.93;;;1.90;;
60851;SDS011;48553;50.766;2.900;2023-12-20T08:48:13;6.85;;;1.52;;
60851;SDS011;48553;50.766;2.900;2023-12-20T08:51:14;12.32;;;2.25;;
60851;SDS011;48553;50.766;2.900;2023-12-20T08:54:14;10.80;;;2.30;;
60851;SDS011;48553;50.766;2.900;2023-12-20T08:57:16;10.52;;;2.47;;
60851;SDS011;48553;50.766;2.900;2023-12-20T09:00:18;11.52;;;2.28;;
60851;SDS011;48553;50.766;2.900;2023-12-20T09:03:20;8.93;;;2.22;;
60851;SDS011;48553;50.766;2.900;2023-12-20T09:06:21;9.93;;;2.00;;
60851;SDS011;48553;50.766;2.900;2023-12-20T09:09:21;9.77;;;2.10;;
60851;SDS011;48553;50.766;2.900;2023-12-20T09:12:22;10.45;;;2.08;;
60851;SDS011;48553;50.766;2.900;2023-12-20T09:15:23;7.82;;;1.80;;
60851;SDS011;48553;50.766;2.900;2023-12-20T09:18:24;8.43;;;1.70;;
60851;SDS011;48553;50.766;2.900;2023-12-20T09:21:25;8.15;;;1.80;;
60851;SDS011;48553;50.766;2.900;2023-12-20T09:24:26;14.25;;;2.10;;
60851;SDS011;48553;50.766;2.900;2023-12-20T09:27:27;9.57;;;1.95;;
60851;SDS011;48553;50.766;2.900;2023-12-20T09:30:27;7.18;;;1.50;;
60851;SDS011;48553;50.766;2.900;2023-12-20T09:33:29;13.20;;;2.20;;
60851;SDS011;48553;50.766;2.900;2023-12-20T09:36:29;8.85;;;1.67;;
60851;SDS011;48553;50.766;2.900;2023-12-20T09:39:31;7.72;;;1.58;;
60851;SDS011;48553;50.766;2.900;2023-12-20T09:42:41;10.02;;;2.10;;
60851;SDS011;48553;50.766;2.900;2023-12-20T09:45:49;5.15;;;1.42;;
60851;SDS011;48553;50.766;2.900;2023-12-20T09:48:53;8.10;;;2.35;;
60851;SDS011;48553;50.766;2.900;2023-12-20T09:51:54;12.40;;;2.00;;
60851;SDS011;48553;50.766;2.900;2023-12-20T09:54:55;10.10;;;1.92;;
60851;SDS011;48553;50.766;2.900;2023-12-20T09:57:57;11.88;;;1.88;;
60851;SDS011;48553;50.766;2.900;2023-12-20T10:00:57;8.25;;;2.13;;
60851;SDS011;48553;50.766;2.900;2023-12-20T10:03:58;9.70;;;2.20;;
60851;SDS011;48553;50.766;2.900;2023-12-20T10:07:03;6.70;;;1.92;;
60851;SDS011;48553;50.766;2.900;2023-12-20T10:10:04;6.70;;;1.60;;
60851;SDS011;48553;50.766;2.900;2023-12-20T10:13:06;11.63;;;2.10;;
60851;SDS011;48553;50.766;2.900;2023-12-20T10:16:10;9.35;;;1.77;;
60851;SDS011;48553;50.766;2.900;2023-12-20T10:19:11;7.85;;;1.88;;
60851;SDS011;48553;50.766;2.900;2023-12-20T10:22:11;6.93;;;1.80;;
60851;SDS011;48553;50.766;2.900;2023-12-20T10:25:12;12.55;;;1.80;;
60851;SDS011;48553;50.766;2.900;2023-12-20T10:28:13;9.45;;;2.03;;
60851;SDS011;48553;50.766;2.900;2023-12-20T10:31:26;9.38;;;1.90;;
60851;SDS011;48553;50.766;2.900;2023-12-20T10:34:28;13.07;;;2.10;;
60851;SDS011;48553;50.766;2.900;2023-12-20T10:37:29;10.75;;;2.30;;
60851;SDS011;48553;50.766;2.900;2023-12-20T10:40:29;9.10;;;2.13;;
60851;SDS011;48553;50.766;2.900;2023-12-20T10:43:31;10.32;;;1.95;;
60851;SDS011;48553;50.766;2.900;2023-12-20T10:46:33;7.95;;;2.13;;
60851;SDS011;48553;50.766;2.900;2023-12-20T10:49:34;10.55;;;2.08;;
60851;SDS011;48553;50.766;2.900;2023-12-20T10:52:36;12.30;;;2.25;;
60851;SDS011;48553;50.766;2.900;2023-12-20T10:55:38;10.65;;;2.03;;
60851;SDS011;48553;50.766;2.900;2023-12-20T10:58:39;8.10;;;1.90;;
60851;SDS011;48553;50.766;2.900;2023-12-20T11:01:43;7.35;;;1.85;;
60851;SDS011;48553;50.766;2.900;2023-12-20T11:04:46;10.40;;;2.10;;
60851;SDS011;48553;50.766;2.900;2023-12-20T11:11:39;9.40;;;1.67;;
60851;SDS011;48553;50.766;2.900;2023-12-20T11:14:57;12.30;;;2.33;;
60851;SDS011;48553;50.766;2.900;2023-12-20T11:18:04;7.80;;;1.58;;
60851;SDS011;48553;50.766;2.900;2023-12-20T11:21:06;10.38;;;1.83;;
60851;SDS011;48553;50.766;2.900;2023-12-20T11:24:07;12.60;;;1.75;;
60851;SDS011;48553;50.766;2.900;2023-12-20T11:27:07;8.52;;;1.55;;
60851;SDS011;48553;50.766;2.900;2023-12-20T11:30:08;9.02;;;1.50;;
60851;SDS011;48553;50.766;2.900;2023-12-20T11:33:09;9.32;;;1.55;;
60851;SDS011;48553;50.766;2.900;2023-12-20T11:36:13;6.45;;;1.67;;
60851;SDS011;48553;50.766;2.900;2023-12-20T11:39:18;8.65;;;1.80;;
60851;SDS011;48553;50.766;2.900;2023-12-20T11:42:21;9.18;;;1.35;;
60851;SDS011;48553;50.766;2.900;2023-12-20T11:45:23;9.25;;;1.73;;
60851;SDS011;48553;50.766;2.900;2023-12-20T11:48:24;7.88;;;1.67;;
60851;SDS011;48553;50.766;2.900;2023-12-20T11:51:25;7.68;;;1.70;;
60851;SDS011;48553;50.766;2.900;2023-12-20T11:54:25;7.50;;;1.50;;
60851;SDS011;48553;50.766;2.900;2023-12-20T11:57:26;10.20;;;2.00;;
60851;SDS011;48553;50.766;2.900;2023-12-20T12:00:26;8.77;;;1.60;;
60851;SDS011;48553;50.766;2.900;2023-12-20T12:03:27;7.43;;;1.60;;
60851;SDS011;48553;50.766;2.900;2023-12-20T12:06:27;8.00;;;1.38;;
60851;SDS011;48553;50.766;2.900;2023-12-20T12:09:27;8.40;;;1.60;;
60851;SDS011;48553;50.766;2.900;2023-12-20T12:12:28;6.90;;;1.40;;
60851;SDS011;48553;50.766;2.900;2023-12-20T12:15:30;6.95;;;1.23;;
60851;SDS011;48553;50.766;2.900;2023-12-20T12:18:30;8.32;;;1.42;;
60851;SDS011;48553;50.766;2.900;2023-12-20T12:21:31;5.43;;;1.15;;
60851;SDS011;48553;50.766;2.900;2023-12-20T12:24:31;5.93;;;1.10;;
60851;SDS011;48553;50.766;2.900;2023-12-20T12:27:32;8.52;;;1.58;;
60851;SDS011;48553;50.766;2.900;2023-12-20T12:30:33;7.85;;;1.30;;
60851;SDS011;48553;50.766;2.900;2023-12-20T12:33:33;6.60;;;1.23;;
60851;SDS011;48553;50.766;2.900;2023-12-20T12:36:34;8.02;;;1.58;;
60851;SDS011;48553;50.766;2.900;2023-12-20T12:39:35;4.13;;;1.20;;
60851;SDS011;48553;50.766;2.900;2023-12-20T12:42:36;5.03;;;1.00;;
60851;SDS011;48553;50.766;2.900;2023-12-20T12:45:37;4.82;;;1.10;;
60851;SDS011;48553;50.766;2.900;2023-12-20T12:48:37;6.20;;;1.20;;
60851;SDS011;48553;50.766;2.900;2023-12-20T12:51:38;6.70;;;1.13;;
60851;SDS011;48553;50.766;2.900;2023-12-20T12:54:39;5.30;;;1.27;;
60851;SDS011;48553;50.766;2.900;2023-12-20T12:57:39;7.07;;;1.27;;
60851;SDS011;48553;50.766;2.900;2023-12-20T13:00:40;5.85;;;1.17;;
60851;SDS011;48553;50.766;2.900;2023-12-20T13:03:41;7.78;;;1.30;;
60851;SDS011;48553;50.766;2.900;2023-12-20T13:06:42;6.35;;;1.00;;
60851;SDS011;48553;50.766;2.900;2023-12-20T13:09:42;7.43;;;1.33;;
60851;SDS011;48553;50.766;2.900;2023-12-20T13:12:43;5.05;;;1.23;;
60851;SDS011;48553;50.766;2.900;2023-12-20T13:15:43;3.90;;;1.00;;
60851;SDS011;48553;50.766;2.900;2023-12-20T13:18:50;8.25;;;1.27;;
60851;SDS011;48553;50.766;2.900;2023-12-20T13:21:51;5.47;;;1.15;;
60851;SDS011;48553;50.766;2.900;2023-12-20T13:24:51;5.25;;;1.25;;
60851;SDS011;48553;50.766;2.900;2023-12-20T13:27:52;10.15;;;1.45;;
60851;SDS011;48553;50.766;2.900;2023-12-20T13:30:53;7.43;;;1.40;;
60851;SDS011;48553;50.766;2.900;2023-12-20T13:33:53;10.48;;;1.50;;
60851;SDS011;48553;50.766;2.900;2023-12-20T13:36:54;6.97;;;1.20;;
60851;SDS011;48553;50.766;2.900;2023-12-20T13:39:54;5.50;;;1.15;;
60851;SDS011;48553;50.766;2.900;2023-12-20T13:42:55;10.00;;;1.48;;
60851;SDS011;48553;50.766;2.900;2023-12-20T13:45:56;5.50;;;1.20;;
60851;SDS011;48553;50.766;2.900;2023-12-20T13:48:56;5.18;;;1.10;;
60851;SDS011;48553;50.766;2.900;2023-12-20T13:51:57;4.70;;;1.20;;
60851;SDS011;48553;50.766;2.900;2023-12-20T13:54:58;5.25;;;1.40;;
60851;SDS011;48553;50.766;2.900;2023-12-20T13:57:58;7.25;;;1.10;;
60851;SDS011;48553;50.766;2.900;2023-12-20T14:00:59;10.05;;;1.70;;
60851;SDS011;48553;50.766;2.900;2023-12-20T14:03:59;10.27;;;1.42;;
60851;SDS011;48553;50.766;2.900;2023-12-20T14:07:01;5.57;;;1.10;;
60851;SDS011;48553;50.766;2.900;2023-12-20T14:10:01;6.47;;;1.10;;
60851;SDS011;48553;50.766;2.900;2023-12-20T14:13:02;7.25;;;1.35;;
60851;SDS011;48553;50.766;2.900;2023-12-20T14:16:03;7.47;;;1.38;;
60851;SDS011;48553;50.766;2.900;2023-12-20T14:19:04;6.22;;;1.48;;
60851;SDS011;48553;50.766;2.900;2023-12-20T14:22:07;8.02;;;1.70;;
60851;SDS011;48553;50.766;2.900;2023-12-20T14:25:07;7.15;;;1.30;;
60851;SDS011;48553;50.766;2.900;2023-12-20T14:28:08;9.63;;;1.40;;
60851;SDS011;48553;50.766;2.900;2023-12-20T14:31:10;5.45;;;1.42;;
60851;SDS011;48553;50.766;2.900;2023-12-20T14:34:10;7.40;;;1.55;;
60851;SDS011;48553;50.766;2.900;2023-12-20T14:37:11;8.77;;;1.40;;
60851;SDS011;48553;50.766;2.900;2023-12-20T14:40:12;7.78;;;1.42;;
60851;SDS011;48553;50.766;2.900;2023-12-20T14:43:16;11.88;;;1.83;;
60851;SDS011;48553;50.766;2.900;2023-12-20T14:46:16;7.78;;;1.63;;
60851;SDS011;48553;50.766;2.900;2023-12-20T14:49:17;9.68;;;1.73;;
60851;SDS011;48553;50.766;2.900;2023-12-20T14:52:18;7.78;;;1.67;;
60851;SDS011;48553;50.766;2.900;2023-12-20T14:55:18;10.98;;;1.90;;
60851;SDS011;48553;50.766;2.900;2023-12-20T14:58:19;6.90;;;1.50;;
60851;SDS011;48553;50.766;2.900;2023-12-20T15:01:19;9.48;;;1.80;;
60851;SDS011;48553;50.766;2.900;2023-12-20T15:04:21;8.02;;;1.80;;
60851;SDS011;48553;50.766;2.900;2023-12-20T15:07:28;10.98;;;2.10;;
60851;SDS011;48553;50.766;2.900;2023-12-20T15:10:29;7.75;;;1.70;;
60851;SDS011;48553;50.766;2.900;2023-12-20T15:13:30;7.13;;;2.00;;
60851;SDS011;48553;50.766;2.900;2023-12-20T15:16:31;11.45;;;1.95;;
60851;SDS011;48553;50.766;2.900;2023-12-20T15:19:32;10.63;;;2.13;;
60851;SDS011;48553;50.766;2.900;2023-12-20T15:22:32;8.07;;;1.98;;
60851;SDS011;48553;50.766;2.900;2023-12-20T15:25:36;9.68;;;1.90;;
60851;SDS011;48553;50.766;2.900;2023-12-20T15:28:36;8.30;;;1.67;;
60851;SDS011;48553;50.766;2.900;2023-12-20T15:31:37;10.15;;;1.98;;
60851;SDS011;48553;50.766;2.900;2023-12-20T15:34:41;9.25;;;1.83;;
60851;SDS011;48553;50.766;2.900;2023-12-20T15:37:42;11.63;;;2.13;;
60851;SDS011;48553;50.766;2.900;2023-12-20T15:40:42;11.18;;;1.95;;
60851;SDS011;48553;50.766;2.900;2023-12-20T15:43:43;7.43;;;2.00;;
60851;SDS011;48553;50.766;2.900;2023-12-20T15:46:43;8.68;;;2.00;;
60851;SDS011;48553;50.766;2.900;2023-12-20T15:49:44;7.75;;;1.88;;
60851;SDS011;48553;50.766;2.900;2023-12-20T15:52:47;9.73;;;1.80;;
60851;SDS011;48553;50.766;2.900;2023-12-20T15:55:47;10.20;;;1.98;;
60851;SDS011;48553;50.766;2.900;2023-12-20T15:58:48;9.70;;;1.95;;
60851;SDS011;48553;50.766;2.900;2023-12-20T16:01:48;8.80;;;1.95;;
60851;SDS011;48553;50.766;2.900;2023-12-20T16:04:49;8.77;;;1.80;;
60851;SDS011;48553;50.766;2.900;2023-12-20T16:07:49;9.65;;;1.98;;
60851;SDS011;48553;50.766;2.900;2023-12-20T16:10:50;9.63;;;1.58;;
60851;SDS011;48553;50.766;2.900;2023-12-20T16:13:51;9.45;;;2.00;;
60851;SDS011;48553;50.766;2.900;2023-12-20T16:16:51;12.05;;;1.70;;
60851;SDS011;48553;50.766;2.900;2023-12-20T16:19:52;7.90;;;1.63;;
60851;SDS011;48553;50.766;2.900;2023-12-20T16:22:52;9.98;;;1.88;;
60851;SDS011;48553;50.766;2.900;2023-12-20T16:25:52;8.68;;;1.70;;
60851;SDS011;48553;50.766;2.900;2023-12-20T16:28:53;11.27;;;1.90;;
60851;SDS011;48553;50.766;2.900;2023-12-20T16:31:53;9.13;;;1.55;;
60851;SDS011;48553;50.766;2.900;2023-12-20T16:34:54;9.73;;;1.60;;
60851;SDS011;48553;50.766;2.900;2023-12-20T16:37:54;7.85;;;1.50;;
60851;SDS011;48553;50.766;2.900;2023-12-20T16:40:54;7.22;;;1.63;;
60851;SDS011;48553;50.766;2.900;2023-12-20T16:43:55;7.18;;;1.55;;
60851;SDS011;48553;50.766;2.900;2023-12-20T16:46:55;7.03;;;1.48;;
60851;SDS011;48553;50.766;2.900;2023-12-20T16:49:56;9.95;;;1.85;;
60851;SDS011;48553;50.766;2.900;2023-12-20T16:52:58;8.27;;;1.60;;
60851;SDS011;48553;50.766;2.900;2023-12-20T16:55:58;7.35;;;1.52;;
60851;SDS011;48553;50.766;2.900;2023-12-20T16:58:59;10.27;;;1.90;;
60851;SDS011;48553;50.766;2.900;2023-12-20T17:02:00;7.65;;;1.70;;
60851;SDS011;48553;50.766;2.900;2023-12-20T17:05:04;8.90;;;1.50;;
60851;SDS011;48553;50.766;2.900;2023-12-20T17:08:05;8.75;;;1.50;;
60851;SDS011;48553;50.766;2.900;2023-12-20T17:11:06;9.57;;;1.70;;
60851;SDS011;48553;50.766;2.900;2023-12-20T17:14:06;6.32;;;1.58;;
60851;SDS011;48553;50.766;2.900;2023-12-20T17:17:09;11.57;;;1.80;;
60851;SDS011;48553;50.766;2.900;2023-12-20T17:20:09;9.60;;;1.70;;
60851;SDS011;48553;50.766;2.900;2023-12-20T17:23:10;6.13;;;1.33;;
60851;SDS011;48553;50.766;2.900;2023-12-20T17:26:11;8.85;;;1.80;;
60851;SDS011;48553;50.766;2.900;2023-12-20T17:29:12;7.80;;;1.65;;
60851;SDS011;48553;50.766;2.900;2023-12-20T17:32:13;8.27;;;1.73;;
60851;SDS011;48553;50.766;2.900;2023-12-20T17:35:14;6.50;;;1.70;;
60851;SDS011;48553;50.766;2.900;2023-12-20T17:38:15;9.25;;;1.90;;
60851;SDS011;48553;50.766;2.900;2023-12-20T17:41:16;9.98;;;2.10;;
60851;SDS011;48553;50.766;2.900;2023-12-20T17:44:16;8.50;;;1.88;;
60851;SDS011;48553;50.766;2.900;2023-12-20T17:47:17;10.15;;;2.15;;
60851;SDS011;48553;50.766;2.900;2023-12-20T17:50:18;8.52;;;1.95;;
60851;SDS011;48553;50.766;2.900;2023-12-20T17:53:19;9.57;;;1.90;;
60851;SDS011;48553;50.766;2.900;2023-12-20T17:56:20;8.65;;;2.20;;
60851;SDS011;48553;50.766;2.900;2023-12-20T17:59:20;10.18;;;1.90;;
60851;SDS011;48553;50.766;2.900;2023-12-20T18:02:20;16.15;;;2.28;;
60851;SDS011;48553;50.766;2.900;2023-12-20T18:05:21;9.00;;;2.20;;
60851;SDS011;48553;50.766;2.900;2023-12-20T18:08:22;8.80;;;2.55;;
60851;SDS011;48553;50.766;2.900;2023-12-20T18:11:22;11.93;;;1.85;;